sensor_id;sensor_type;location;lat;lon;timestamp;pressure;altitude;pressure_sealevel;temperature;humidity
20228;BME280;12195;55.790;37.572;2023-04-07T00:01:05;100642.50;;;4.71;48.13
20228;BME280;12195;55.790;37.572;2023-04-07T00:03:37;100650.31;;;4.71;48.13
20228;BME280;12195;55.790;37.572;2023-04-07T00:06:11;100643.39;;;4.70;48.22
20228;BME280;12195;55.790;37.572;2023-04-07T00:08:43;100646.03;;;4.67;48.25
20228;BME280;12195;55.790;37.572;2023-04-07T00:11:15;100644.34;;;4.64;48.57
20228;BME280;12195;55.790;37.572;2023-04-07T00:13:47;100645.30;;;4.59;48.60
20228;BME280;12195;55.790;37.572;2023-04-07T00:16:20;100648.83;;;4.55;48.65
20228;BME280;12195;55.790;37.572;2023-04-07T00:18:52;100646.27;;;4.52;48.66
20228;BME280;12195;55.790;37.572;2023-04-07T00:21:24;100647.16;;;4.51;48.64
20228;BME280;12195;55.790;37.572;2023-04-07T00:23:57;100645.44;;;4.50;48.82
20228;BME280;12195;55.790;37.572;2023-04-07T00:26:29;100651.57;;;4.46;48.87
20228;BME280;12195;55.790;37.572;2023-04-07T00:29:02;100642.94;;;4.42;48.98
20228;BME280;12195;55.790;37.572;2023-04-07T00:31:34;100649.05;;;4.40;49.01
20228;BME280;12195;55.790;37.572;2023-04-07T00:34:06;100640.46;;;4.35;49.19
20228;BME280;12195;55.790;37.572;2023-04-07T00:36:38;100643.97;;;4.32;49.37
20228;BME280;12195;55.790;37.572;2023-04-07T00:39:10;100643.16;;;4.29;49.21
20228;BME280;12195;55.790;37.572;2023-04-07T00:41:43;100638.89;;;4.25;49.40
20228;BME280;12195;55.790;37.572;2023-04-07T00:44:15;100642.41;;;4.21;49.48
20228;BME280;12195;55.790;37.572;2023-04-07T00:46:47;100649.38;;;4.17;49.64
20228;BME280;12195;55.790;37.572;2023-04-07T00:49:19;100645.97;;;4.14;49.80
20228;BME280;12195;55.790;37.572;2023-04-07T00:51:54;100643.39;;;4.12;49.69
20228;BME280;12195;55.790;37.572;2023-04-07T00:54:26;100651.22;;;4.09;49.82
20228;BME280;12195;55.790;37.572;2023-04-07T00:57:00;100645.21;;;4.06;49.86
20228;BME280;12195;55.790;37.572;2023-04-07T00:59:32;100653.92;;;4.02;49.90
20228;BME280;12195;55.790;37.572;2023-04-07T01:02:16;100652.23;;;3.99;50.16
20228;BME280;12195;55.790;37.572;2023-04-07T01:04:52;100650.53;;;3.97;50.08
20228;BME280;12195;55.790;37.572;2023-04-07T01:07:31;100652.28;;;3.95;50.19
20228;BME280;12195;55.790;37.572;2023-04-07T01:10:05;100651.47;;;3.91;50.31
20228;BME280;12195;55.790;37.572;2023-04-07T01:12:46;100646.30;;;3.88;50.39
20228;BME280;12195;55.790;37.572;2023-04-07T01:15:20;100645.50;;;3.85;50.41
20228;BME280;12195;55.790;37.572;2023-04-07T01:18:12;100657.67;;;3.81;50.52
20228;BME280;12195;55.790;37.572;2023-04-07T01:20:39;100656.83;;;3.78;50.52
20228;BME280;12195;55.790;37.572;2023-04-07T01:23:16;100657.74;;;3.74;50.59
20228;BME280;12195;55.790;37.572;2023-04-07T01:25:53;100663.85;;;3.70;50.65
20228;BME280;12195;55.790;37.572;2023-04-07T01:28:39;100660.45;;;3.65;50.93
20228;BME280;12195;55.790;37.572;2023-04-07T01:31:08;100659.66;;;3.60;51.08
20228;BME280;12195;55.790;37.572;2023-04-07T01:33:43;100664.86;;;3.58;51.22
20228;BME280;12195;55.790;37.572;2023-04-07T01:36:16;100673.55;;;3.56;51.24
20228;BME280;12195;55.790;37.572;2023-04-07T01:38:50;100663.19;;;3.53;51.16
20228;BME280;12195;55.790;37.572;2023-04-07T01:41:25;100657.17;;;3.51;51.33
20228;BME280;12195;55.790;37.572;2023-04-07T01:43:59;100653.72;;;3.47;51.57
20228;BME280;12195;55.790;37.572;2023-04-07T01:46:32;100665.89;;;3.44;51.71
20228;BME280;12195;55.790;37.572;2023-04-07T01:49:04;100666.78;;;3.41;51.74
20228;BME280;12195;55.790;37.572;2023-04-07T01:51:37;100659.89;;;3.39;51.78
20228;BME280;12195;55.790;37.572;2023-04-07T01:54:10;100658.20;;;3.36;51.69
20228;BME280;12195;55.790;37.572;2023-04-07T01:56:43;100654.75;;;3.33;51.94
20228;BME280;12195;55.790;37.572;2023-04-07T01:59:16;100659.95;;;3.31;51.95
20228;BME280;12195;55.790;37.572;2023-04-07T02:01:48;100666.91;;;3.29;52.14
20228;BME280;12195;55.790;37.572;2023-04-07T02:07:09;100665.23;;;3.24;52.09
20228;BME280;12195;55.790;37.572;2023-04-07T02:09:44;100660.94;;;3.21;52.14
20228;BME280;12195;55.790;37.572;2023-04-07T02:12:18;100673.09;;;3.18;52.16
20228;BME280;12195;55.790;37.572;2023-04-07T02:14:53;100667.05;;;3.14;52.44
20228;BME280;12195;55.790;37.572;2023-04-07T02:17:27;100667.95;;;3.10;52.54
20228;BME280;12195;55.790;37.572;2023-04-07T02:20:00;100666.25;;;3.08;52.63
20228;BME280;12195;55.790;37.572;2023-04-07T02:22:33;100667.14;;;3.04;52.75
20228;BME280;12195;55.790;37.572;2023-04-07T02:25:23;100671.52;;;2.99;53.07
20228;BME280;12195;55.790;37.572;2023-04-07T02:27:57;100662.05;;;2.95;53.24
20228;BME280;12195;55.790;37.572;2023-04-07T02:30:30;100674.16;;;2.93;53.56
20228;BME280;12195;55.790;37.572;2023-04-07T02:33:02;100672.45;;;2.89;53.62
20228;BME280;12195;55.790;37.572;2023-04-07T02:35:34;100671.63;;;2.87;53.73
20228;BME280;12195;55.790;37.572;2023-04-07T02:38:06;100664.73;;;2.86;53.81
20228;BME280;12195;55.790;37.572;2023-04-07T02:40:38;100671.63;;;2.85;53.63
20228;BME280;12195;55.790;37.572;2023-04-07T02:43:10;100664.73;;;2.86;53.56
20228;BME280;12195;55.790;37.572;2023-04-07T02:45:43;100666.45;;;2.85;53.68
20228;BME280;12195;55.790;37.572;2023-04-07T02:48:15;100668.16;;;2.85;53.70
20228;BME280;12195;55.790;37.572;2023-04-07T02:50:48;100669.91;;;2.86;53.64
20228;BME280;12195;55.790;37.572;2023-04-07T02:53:20;100671.63;;;2.87;53.96
20228;BME280;12195;55.790;37.572;2023-04-07T02:55:52;100670.75;;;2.86;53.71
20228;BME280;12195;55.790;37.572;2023-04-07T02:58:24;100675.05;;;2.89;53.56
20228;BME280;12195;55.790;37.572;2023-04-07T03:00:56;100673.33;;;2.89;53.76
20228;BME280;12195;55.790;37.572;2023-04-07T03:03:30;100681.97;;;2.91;53.58
20228;BME280;12195;55.790;37.572;2023-04-07T03:06:10;100677.62;;;2.93;53.71
20228;BME280;12195;55.790;37.572;2023-04-07T03:08:44;100678.44;;;2.97;53.54
20228;BME280;12195;55.790;37.572;2023-04-07T03:11:16;100689.67;;;3.00;53.44
20228;BME280;12195;55.790;37.572;2023-04-07T03:13:48;100686.19;;;3.03;53.43
20228;BME280;12195;55.790;37.572;2023-04-07T03:16:22;100692.20;;;3.05;53.48
20228;BME280;12195;55.790;37.572;2023-04-07T03:18:56;100689.58;;;3.09;53.44
20228;BME280;12195;55.790;37.572;2023-04-07T03:21:29;100692.16;;;3.14;53.22
20228;BME280;12195;55.790;37.572;2023-04-07T03:24:01;100693.84;;;3.18;53.22
20228;BME280;12195;55.790;37.572;2023-04-07T03:26:34;100692.06;;;3.23;52.91
20228;BME280;12195;55.790;37.572;2023-04-07T03:29:07;100688.55;;;3.28;52.89
20228;BME280;12195;55.790;37.572;2023-04-07T03:31:40;100697.02;;;3.47;51.60
20228;BME280;12195;55.790;37.572;2023-04-07T03:34:13;100690.14;;;3.41;52.14
20228;BME280;12195;55.790;37.572;2023-04-07T03:36:45;100696.12;;;3.48;52.27
20228;BME280;12195;55.790;37.572;2023-04-07T03:39:17;100698.63;;;3.57;52.01
20228;BME280;12195;55.790;37.572;2023-04-07T03:41:51;100705.48;;;3.64;51.84
20228;BME280;12195;55.790;37.572;2023-04-07T03:44:24;100702.81;;;3.68;51.76
20228;BME280;12195;55.790;37.572;2023-04-07T03:46:57;100707.11;;;3.71;51.43
20228;BME280;12195;55.790;37.572;2023-04-07T03:49:29;100707.93;;;3.77;51.51
20228;BME280;12195;55.790;37.572;2023-04-07T03:52:03;100710.43;;;3.85;51.48
20228;BME280;12195;55.790;37.572;2023-04-07T03:54:35;100711.97;;;4.01;50.33
20228;BME280;12195;55.790;37.572;2023-04-07T03:57:08;100698.19;;;3.96;50.79
20228;BME280;12195;55.790;37.572;2023-04-07T03:59:42;100713.69;;;4.02;50.87
20228;BME280;12195;55.790;37.572;2023-04-07T04:02:14;100704.97;;;4.06;50.65
20228;BME280;12195;55.790;37.572;2023-04-07T04:04:47;100704.02;;;4.14;50.61
20228;BME280;12195;55.790;37.572;2023-04-07T04:07:20;100705.64;;;4.20;50.54
20228;BME280;12195;55.790;37.572;2023-04-07T04:09:55;100702.09;;;4.27;50.29
20228;BME280;12195;55.790;37.572;2023-04-07T04:12:27;100705.47;;;4.33;50.12
20228;BME280;12195;55.790;37.572;2023-04-07T04:15:04;100714.89;;;4.42;49.90
20228;BME280;12195;55.790;37.572;2023-04-07T04:17:36;100714.78;;;4.49;49.59
20228;BME280;12195;55.790;37.572;2023-04-07T04:20:10;100708.59;;;4.58;49.22
20228;BME280;12195;55.790;37.572;2023-04-07T04:22:44;100710.17;;;4.68;49.03
20228;BME280;12195;55.790;37.572;2023-04-07T04:25:16;100720.41;;;4.78;48.90
20228;BME280;12195;55.790;37.572;2023-04-07T04:27:51;100718.58;;;4.85;48.64
20228;BME280;12195;55.790;37.572;2023-04-07T04:30:25;100725.39;;;4.93;48.33
20228;BME280;12195;55.790;37.572;2023-04-07T04:32:59;100720.03;;;5.02;48.49
20228;BME280;12195;55.790;37.572;2023-04-07T04:35:36;100724.27;;;5.09;48.16
20228;BME280;12195;55.790;37.572;2023-04-07T04:38:10;100724.13;;;5.17;47.97
20228;BME280;12195;55.790;37.572;2023-04-07T04:40:43;100731.55;;;5.39;47.56
20228;BME280;12195;55.790;37.572;2023-04-07T04:43:17;100727.30;;;5.34;47.26
20228;BME280;12195;55.790;37.572;2023-04-07T04:45:49;100727.21;;;5.40;47.25
20228;BME280;12195;55.790;37.572;2023-04-07T04:48:23;100725.41;;;5.43;46.85
20228;BME280;12195;55.790;37.572;2023-04-07T04:50:55;100722.71;;;5.49;47.07
20228;BME280;12195;55.790;37.572;2023-04-07T04:53:28;100726.88;;;5.58;46.87
20228;BME280;12195;55.790;37.572;2023-04-07T04:56:02;100732.80;;;5.66;46.48
20228;BME280;12195;55.790;37.572;2023-04-07T04:58:38;100731.79;;;5.74;46.11
20228;BME280;12195;55.790;37.572;2023-04-07T05:01:13;100741.22;;;5.82;45.73
20228;BME280;12195;55.790;37.572;2023-04-07T05:03:47;100739.33;;;5.90;45.82
20228;BME280;12195;55.790;37.572;2023-04-07T05:06:21;100733.09;;;5.98;46.08
20228;BME280;12195;55.790;37.572;2023-04-07T05:08:54;100735.23;;;6.21;45.79
20228;BME280;12195;55.790;37.572;2023-04-07T05:11:28;100730.97;;;6.17;45.38
20228;BME280;12195;55.790;37.572;2023-04-07T05:14:00;100729.02;;;6.28;45.51
20228;BME280;12195;55.790;37.572;2023-04-07T05:16:32;100730.55;;;6.36;44.89
20228;BME280;12195;55.790;37.572;2023-04-07T05:19:05;100733.85;;;6.44;44.81
20228;BME280;12195;55.790;37.572;2023-04-07T05:21:38;100731.97;;;6.51;44.22
20228;BME280;12195;55.790;37.572;2023-04-07T05:24:12;100737.04;;;6.58;44.10
20228;BME280;12195;55.790;37.572;2023-04-07T05:26:46;100737.70;;;6.66;44.17
20228;BME280;12195;55.790;37.572;2023-04-07T05:29:18;100740.91;;;6.79;44.09
20228;BME280;12195;55.790;37.572;2023-04-07T05:31:50;100739.75;;;6.90;43.61
20228;BME280;12195;55.790;37.572;2023-04-07T05:34:24;100741.21;;;7.03;43.25
20228;BME280;12195;55.790;37.572;2023-04-07T05:36:57;100740.98;;;7.12;42.87
20228;BME280;12195;55.790;37.572;2023-04-07T05:39:30;100735.49;;;7.23;42.75
20228;BME280;12195;55.790;37.572;2023-04-07T05:42:04;100737.94;;;7.29;42.50
20228;BME280;12195;55.790;37.572;2023-04-07T05:44:38;100744.67;;;7.39;42.32
20228;BME280;12195;55.790;37.572;2023-04-07T05:47:10;100739.13;;;7.51;42.25
20228;BME280;12195;55.790;37.572;2023-04-07T05:49:43;100743.25;;;7.59;41.75
20228;BME280;12195;55.790;37.572;2023-04-07T05:52:18;100736.94;;;7.68;41.70
20228;BME280;12195;55.790;37.572;2023-04-07T05:54:52;100745.06;;;7.89;41.39
20228;BME280;12195;55.790;37.572;2023-04-07T05:57:27;100745.95;;;8.49;40.24
20228;BME280;12195;55.790;37.572;2023-04-07T06:00:00;100741.51;;;9.34;38.56
20228;BME280;12195;55.790;37.572;2023-04-07T06:02:32;100738.09;;;9.82;37.53
20228;BME280;12195;55.790;37.572;2023-04-07T06:05:06;100743.82;;;10.18;36.51
20228;BME280;12195;55.790;37.572;2023-04-07T06:07:40;100734.34;;;10.60;35.89
20228;BME280;12195;55.790;37.572;2023-04-07T06:10:13;100734.55;;;11.20;34.87
20228;BME280;12195;55.790;37.572;2023-04-07T06:12:46;100736.23;;;12.23;33.35
20228;BME280;12195;55.790;37.572;2023-04-07T06:15:18;100736.23;;;13.15;35.65
20228;BME280;12195;55.790;37.572;2023-04-07T06:17:51;100732.18;;;13.44;31.69
20228;BME280;12195;55.790;37.572;2023-04-07T06:20:23;100739.95;;;13.81;31.05
20228;BME280;12195;55.790;37.572;2023-04-07T06:22:56;100733.40;;;14.05;30.14
20228;BME280;12195;55.790;37.572;2023-04-07T06:25:29;100737.23;;;14.32;29.85
20228;BME280;12195;55.790;37.572;2023-04-07T06:28:04;100737.76;;;14.38;29.57
20228;BME280;12195;55.790;37.572;2023-04-07T06:30:36;100736.88;;;14.70;29.23
20228;BME280;12195;55.790;37.572;2023-04-07T06:33:10;100729.20;;;14.97;28.94
20228;BME280;12195;55.790;37.572;2023-04-07T06:35:42;100731.67;;;15.00;28.63
20228;BME280;12195;55.790;37.572;2023-04-07T06:38:15;100733.80;;;14.62;28.88
20228;BME280;12195;55.790;37.572;2023-04-07T06:40:47;100739.49;;;14.39;29.38
20228;BME280;12195;55.790;37.572;2023-04-07T06:43:19;100736.61;;;15.06;28.41
20228;BME280;12195;55.790;37.572;2023-04-07T06:46:00;100733.19;;;16.08;27.19
20228;BME280;12195;55.790;37.572;2023-04-07T06:48:32;100730.03;;;17.26;25.87
20228;BME280;12195;55.790;37.572;2023-04-07T06:51:04;100734.27;;;17.94;24.72
20228;BME280;12195;55.790;37.572;2023-04-07T06:53:37;100728.75;;;18.96;23.45
20228;BME280;12195;55.790;37.572;2023-04-07T06:56:10;100723.73;;;20.42;21.83
20228;BME280;12195;55.790;37.572;2023-04-07T06:58:42;100724.38;;;21.21;21.07
20228;BME280;12195;55.790;37.572;2023-04-07T07:01:14;100723.45;;;21.43;20.90
20228;BME280;12195;55.790;37.572;2023-04-07T07:03:47;100721.27;;;21.37;20.75
20228;BME280;12195;55.790;37.572;2023-04-07T07:06:20;100726.02;;;21.02;21.09
20228;BME280;12195;55.790;37.572;2023-04-07T07:08:53;100722.85;;;20.75;21.10
20228;BME280;12195;55.790;37.572;2023-04-07T07:11:25;100729.78;;;20.22;21.49
20228;BME280;12195;55.790;37.572;2023-04-07T07:13:57;100715.56;;;19.65;22.28
20228;BME280;12195;55.790;37.572;2023-04-07T07:16:30;100726.38;;;19.04;22.59
20228;BME280;12195;55.790;37.572;2023-04-07T07:19:02;100728.64;;;18.11;23.39
20228;BME280;12195;55.790;37.572;2023-04-07T07:21:34;100733.48;;;17.14;24.72
20228;BME280;12195;55.790;37.572;2023-04-07T07:24:07;100733.22;;;16.22;25.70
20228;BME280;12195;55.790;37.572;2023-04-07T07:26:40;100740.16;;;15.51;26.61
20228;BME280;12195;55.790;37.572;2023-04-07T07:29:13;100737.81;;;14.85;27.47
20228;BME280;12195;55.790;37.572;2023-04-07T07:31:46;100741.50;;;14.34;28.17
20228;BME280;12195;55.790;37.572;2023-04-07T07:34:19;100737.77;;;13.89;29.43
20228;BME280;12195;55.790;37.572;2023-04-07T07:36:51;100739.41;;;13.57;29.94
20228;BME280;12195;55.790;37.572;2023-04-07T07:39:23;100739.08;;;13.29;30.14
20228;BME280;12195;55.790;37.572;2023-04-07T07:41:55;100747.30;;;13.05;30.21
20228;BME280;12195;55.790;37.572;2023-04-07T07:44:28;100749.23;;;12.83;30.58
20228;BME280;12195;55.790;37.572;2023-04-07T07:47:02;100746.59;;;12.64;30.98
20228;BME280;12195;55.790;37.572;2023-04-07T07:49:34;100732.42;;;12.48;31.30
20228;BME280;12195;55.790;37.572;2023-04-07T07:52:07;100746.15;;;12.36;31.16
20228;BME280;12195;55.790;37.572;2023-04-07T07:54:41;100743.00;;;12.28;31.82
20228;BME280;12195;55.790;37.572;2023-04-07T07:57:13;100742.30;;;12.25;31.87
20228;BME280;12195;55.790;37.572;2023-04-07T07:59:46;100740.66;;;12.22;32.70
20228;BME280;12195;55.790;37.572;2023-04-07T08:02:19;100734.41;;;12.25;32.61
20228;BME280;12195;55.790;37.572;2023-04-07T08:04:51;100750.97;;;12.27;32.61
20228;BME280;12195;55.790;37.572;2023-04-07T08:07:23;100737.09;;;12.23;31.75
20228;BME280;12195;55.790;37.572;2023-04-07T08:09:55;100739.80;;;12.22;32.73
20228;BME280;12195;55.790;37.572;2023-04-07T08:12:27;100735.39;;;12.22;32.17
20228;BME280;12195;55.790;37.572;2023-04-07T08:15:00;100736.88;;;12.28;32.70
20228;BME280;12195;55.790;37.572;2023-04-07T08:17:32;100743.81;;;12.30;31.49
20228;BME280;12195;55.790;37.572;2023-04-07T08:20:05;100731.70;;;12.26;30.92
20228;BME280;12195;55.790;37.572;2023-04-07T08:22:38;100731.60;;;12.28;32.04
20228;BME280;12195;55.790;37.572;2023-04-07T08:25:10;100733.41;;;12.27;30.77
20228;BME280;12195;55.790;37.572;2023-04-07T08:27:43;100739.38;;;12.31;31.03
20228;BME280;12195;55.790;37.572;2023-04-07T08:30:16;100725.44;;;12.29;31.43
20228;BME280;12195;55.790;37.572;2023-04-07T08:32:50;100719.30;;;12.28;31.25
20228;BME280;12195;55.790;37.572;2023-04-07T08:35:23;100718.23;;;12.32;31.47
20228;BME280;12195;55.790;37.572;2023-04-07T08:37:55;100720.01;;;12.32;32.39
20228;BME280;12195;55.790;37.572;2023-04-07T08:40:27;100703.44;;;12.30;31.43
20228;BME280;12195;55.790;37.572;2023-04-07T08:43:02;100722.00;;;12.27;30.96
20228;BME280;12195;55.790;37.572;2023-04-07T08:45:38;100723.06;;;12.23;30.19
20228;BME280;12195;55.790;37.572;2023-04-07T08:48:19;100715.03;;;12.26;30.46
20228;BME280;12195;55.790;37.572;2023-04-07T08:50:53;100721.07;;;12.28;29.88
20228;BME280;12195;55.790;37.572;2023-04-07T08:53:27;100723.51;;;12.32;30.24
20228;BME280;12195;55.790;37.572;2023-04-07T08:56:01;100725.95;;;12.37;30.20
20228;BME280;12195;55.790;37.572;2023-04-07T08:58:35;100719.45;;;12.44;30.94
20228;BME280;12195;55.790;37.572;2023-04-07T09:01:08;100712.28;;;12.47;30.39
20228;BME280;12195;55.790;37.572;2023-04-07T09:03:48;100717.38;;;12.50;30.06
20228;BME280;12195;55.790;37.572;2023-04-07T09:06:17;100724.32;;;12.53;29.81
20228;BME280;12195;55.790;37.572;2023-04-07T09:08:49;100716.42;;;12.53;29.80
20228;BME280;12195;55.790;37.572;2023-04-07T09:11:21;100716.31;;;12.54;29.61
20228;BME280;12195;55.790;37.572;2023-04-07T09:13:54;100730.29;;;12.56;29.41
20228;BME280;12195;55.790;37.572;2023-04-07T09:16:28;100722.39;;;12.56;29.25
20228;BME280;12195;55.790;37.572;2023-04-07T09:19:02;100724.89;;;12.59;29.53
20228;BME280;12195;55.790;37.572;2023-04-07T09:21:50;100715.98;;;12.62;29.36
20228;BME280;12195;55.790;37.572;2023-04-07T09:24:25;100717.55;;;12.66;29.53
20228;BME280;12195;55.790;37.572;2023-04-07T09:27:17;100707.64;;;12.71;29.53
20228;BME280;12195;55.790;37.572;2023-04-07T09:29:50;100712.70;;;12.75;29.32
20228;BME280;12195;55.790;37.572;2023-04-07T09:32:34;100713.54;;;12.76;28.97
20228;BME280;12195;55.790;37.572;2023-04-07T09:35:10;100720.61;;;12.75;29.09
20228;BME280;12195;55.790;37.572;2023-04-07T09:37:42;100718.44;;;12.83;28.84
20228;BME280;12195;55.790;37.572;2023-04-07T09:40:24;100707.69;;;12.88;28.86
20228;BME280;12195;55.790;37.572;2023-04-07T09:42:50;100712.68;;;12.94;28.43
20228;BME280;12195;55.790;37.572;2023-04-07T09:45:26;100704.49;;;13.00;28.47
20228;BME280;12195;55.790;37.572;2023-04-07T09:48:05;100705.19;;;13.03;27.72
20228;BME280;12195;55.790;37.572;2023-04-07T09:50:42;100706.81;;;13.06;28.66
20228;BME280;12195;55.790;37.572;2023-04-07T09:53:11;100714.52;;;13.10;27.56
20228;BME280;12195;55.790;37.572;2023-04-07T09:55:44;100716.77;;;13.18;27.35
20228;BME280;12195;55.790;37.572;2023-04-07T09:58:17;100709.33;;;13.26;27.71
20228;BME280;12195;55.790;37.572;2023-04-07T10:00:50;100712.63;;;13.31;27.96
20228;BME280;12195;55.790;37.572;2023-04-07T10:03:23;100709.05;;;13.32;27.67
20228;BME280;12195;55.790;37.572;2023-04-07T10:05:56;100713.38;;;13.33;27.76
20228;BME280;12195;55.790;37.572;2023-04-07T10:08:31;100714.08;;;13.36;27.69
20228;BME280;12195;55.790;37.572;2023-04-07T10:11:05;100714.66;;;13.43;27.77
20228;BME280;12195;55.790;37.572;2023-04-07T10:13:39;100703.55;;;13.53;27.42
20228;BME280;12195;55.790;37.572;2023-04-07T10:16:11;100710.13;;;13.62;28.50
20228;BME280;12195;55.790;37.572;2023-04-07T10:18:44;100714.25;;;13.67;27.94
20228;BME280;12195;55.790;37.572;2023-04-07T10:21:17;100705.92;;;13.75;28.53
20228;BME280;12195;55.790;37.572;2023-04-07T10:24:04;100714.56;;;13.78;27.55
20228;BME280;12195;55.790;37.572;2023-04-07T10:26:34;100710.76;;;13.84;27.37
20228;BME280;12195;55.790;37.572;2023-04-07T10:29:11;100703.71;;;14.00;26.76
20228;BME280;12195;55.790;37.572;2023-04-07T10:31:45;100707.52;;;14.11;27.37
20228;BME280;12195;55.790;37.572;2023-04-07T10:34:50;100710.56;;;14.21;26.72
20228;BME280;12195;55.790;37.572;2023-04-07T10:37:12;100690.70;;;14.29;27.20
20228;BME280;12195;55.790;37.572;2023-04-07T10:39:46;100700.09;;;14.35;26.79
20228;BME280;12195;55.790;37.572;2023-04-07T10:45:11;100700.38;;;14.61;28.00
20228;BME280;12195;55.790;37.572;2023-04-07T10:50:34;100704.28;;;15.01;26.73
20228;BME280;12195;55.790;37.572;2023-04-07T10:53:09;100707.34;;;15.09;25.79
20228;BME280;12195;55.790;37.572;2023-04-07T10:55:43;100713.50;;;15.09;25.84
20228;BME280;12195;55.790;37.572;2023-04-07T10:58:23;100713.41;;;15.11;25.79
20228;BME280;12195;55.790;37.572;2023-04-07T11:03:54;100706.48;;;15.08;24.87
20228;BME280;12195;55.790;37.572;2023-04-07T11:06:27;100703.66;;;15.11;26.06
20228;BME280;12195;55.790;37.572;2023-04-07T11:08:59;100698.37;;;15.11;25.45
20228;BME280;12195;55.790;37.572;2023-04-07T11:11:36;100713.05;;;15.17;25.52
20228;BME280;12195;55.790;37.572;2023-04-07T11:14:08;100702.55;;;15.15;24.87
20228;BME280;12195;55.790;37.572;2023-04-07T11:16:42;100693.00;;;15.13;25.04
20228;BME280;12195;55.790;37.572;2023-04-07T11:19:16;100691.55;;;15.07;25.06
20228;BME280;12195;55.790;37.572;2023-04-07T11:21:48;100700.44;;;15.06;25.18
20228;BME280;12195;55.790;37.572;2023-04-07T11:24:33;100699.41;;;15.09;25.10
20228;BME280;12195;55.790;37.572;2023-04-07T11:27:14;100698.66;;;15.07;25.14
20228;BME280;12195;55.790;37.572;2023-04-07T11:29:47;100694.03;;;15.10;25.45
20228;BME280;12195;55.790;37.572;2023-04-07T11:32:24;100691.30;;;15.12;25.07
20228;BME280;12195;55.790;37.572;2023-04-07T11:34:58;100688.12;;;15.21;25.27
20228;BME280;12195;55.790;37.572;2023-04-07T11:37:31;100697.67;;;15.23;25.31
20228;BME280;12195;55.790;37.572;2023-04-07T11:40:04;100691.71;;;15.20;24.94
20228;BME280;12195;55.790;37.572;2023-04-07T11:42:37;100683.00;;;15.18;24.81
20228;BME280;12195;55.790;37.572;2023-04-07T11:45:17;100689.06;;;15.20;24.77
20228;BME280;12195;55.790;37.572;2023-04-07T11:47:50;100681.13;;;15.20;24.76
20228;BME280;12195;55.790;37.572;2023-04-07T11:50:41;100687.95;;;15.24;25.10
20228;BME280;12195;55.790;37.572;2023-04-07T11:53:13;100684.27;;;15.26;24.42
20228;BME280;12195;55.790;37.572;2023-04-07T11:55:47;100686.55;;;15.32;24.53
20228;BME280;12195;55.790;37.572;2023-04-07T11:58:19;100679.99;;;15.39;24.45
20228;BME280;12195;55.790;37.572;2023-04-07T12:00:55;100680.56;;;15.44;24.27
20228;BME280;12195;55.790;37.572;2023-04-07T12:03:28;100674.84;;;15.52;24.60
20228;BME280;12195;55.790;37.572;2023-04-07T12:06:04;100675.33;;;15.58;24.37
20228;BME280;12195;55.790;37.572;2023-04-07T12:08:41;100671.00;;;15.71;24.46
20228;BME280;12195;55.790;37.572;2023-04-07T12:11:14;100681.11;;;15.79;24.27
20228;BME280;12195;55.790;37.572;2023-04-07T12:13:46;100681.50;;;15.87;24.10
20228;BME280;12195;55.790;37.572;2023-04-07T12:16:20;100678.20;;;15.98;24.05
20228;BME280;12195;55.790;37.572;2023-04-07T12:18:53;100678.01;;;16.15;23.90
20228;BME280;12195;55.790;37.572;2023-04-07T12:21:25;100669.39;;;16.53;23.36
20228;BME280;12195;55.790;37.572;2023-04-07T12:23:57;100675.48;;;17.35;22.99
20228;BME280;12195;55.790;37.572;2023-04-07T12:26:29;100670.38;;;18.69;21.07
20228;BME280;12195;55.790;37.572;2023-04-07T12:29:01;100662.71;;;20.48;19.26
20228;BME280;12195;55.790;37.572;2023-04-07T12:31:37;100659.80;;;22.49;17.45
20228;BME280;12195;55.790;37.572;2023-04-07T12:34:09;100646.87;;;24.15;16.20
20228;BME280;12195;55.790;37.572;2023-04-07T12:36:42;100666.12;;;25.54;15.15
20228;BME280;12195;55.790;37.572;2023-04-07T12:39:15;100652.27;;;26.85;14.05
20228;BME280;12195;55.790;37.572;2023-04-07T12:41:47;100661.47;;;27.80;13.21
20228;BME280;12195;55.790;37.572;2023-04-07T12:44:21;100666.24;;;28.95;12.63
20228;BME280;12195;55.790;37.572;2023-04-07T12:46:53;100657.95;;;29.87;11.84
20228;BME280;12195;55.790;37.572;2023-04-07T12:49:26;100654.52;;;30.94;11.08
20228;BME280;12195;55.790;37.572;2023-04-07T12:51:59;100655.27;;;31.87;10.52
20228;BME280;12195;55.790;37.572;2023-04-07T12:54:31;100643.05;;;32.72;9.95
20228;BME280;12195;55.790;37.572;2023-04-07T12:57:04;100647.67;;;33.32;9.83
20228;BME280;12195;55.790;37.572;2023-04-07T12:59:36;100644.96;;;33.51;9.51
20228;BME280;12195;55.790;37.572;2023-04-07T13:02:09;100642.03;;;33.53;9.32
20228;BME280;12195;55.790;37.572;2023-04-07T13:04:44;100646.22;;;33.55;9.54
20228;BME280;12195;55.790;37.572;2023-04-07T13:07:16;100642.23;;;33.45;9.28
20228;BME280;12195;55.790;37.572;2023-04-07T13:09:50;100643.63;;;33.08;9.21
20228;BME280;12195;55.790;37.572;2023-04-07T13:12:22;100636.55;;;32.73;9.39
20228;BME280;12195;55.790;37.572;2023-04-07T13:14:57;100638.20;;;32.67;9.09
20228;BME280;12195;55.790;37.572;2023-04-07T13:17:31;100636.04;;;32.97;9.33
20228;BME280;12195;55.790;37.572;2023-04-07T13:20:05;100636.17;;;33.62;9.08
20228;BME280;12195;55.790;37.572;2023-04-07T13:22:37;100651.56;;;35.78;11.18
20228;BME280;12195;55.790;37.572;2023-04-07T13:25:12;100628.37;;;34.31;8.94
20228;BME280;12195;55.790;37.572;2023-04-07T13:27:44;100642.24;;;34.86;8.65
20228;BME280;12195;55.790;37.572;2023-04-07T13:30:17;100630.55;;;35.48;8.21